Time;durP1;ratioP1;P1;durP2;ratioP2;P2;SDS_P1;SDS_P2;PMS_P1;PMS_P2;Temp;Humidity;BMP_temperature;BMP_pressure;BME280_temperature;BME280_humidity;BME280_pressure;Samples;Min_cycle;Max_cycle;Signal;HPM_P1;HPM_P2
2023/06/17 00:00:32;;;;;;;5.50;5.03;;;;;;;19.03;53.09;101275.47;5031470;27;97156;-49
2023/06/17 00:02:58;;;;;;;6.77;5.70;;;;;;;18.93;53.22;101279.97;5030012;27;97339;-49
2023/06/17 00:05:24;;;;;;;5.97;5.27;;;;;;;18.89;53.50;101271.94;5030898;27;97864;-49
2023/06/17 00:07:51;;;;;;;6.13;5.43;;;;;;;18.86;53.81;101273.00;5036837;27;98050;-49
2023/06/17 00:10:16;;;;;;;5.90;5.40;;;;;;;18.89;53.75;101271.94;5029501;27;97527;-47
2023/06/17 00:12:43;;;;;;;5.57;5.17;;;;;;;18.92;53.61;101270.84;5032815;27;97154;-49
2023/06/17 00:15:09;;;;;;;5.80;5.33;;;;;;;18.91;53.83;101268.59;5034467;27;97163;-49
2023/06/17 00:17:35;;;;;;;5.90;5.40;;;;;;;18.86;53.50;101267.41;5030533;27;97384;-49
2023/06/17 00:20:07;;;;;;;5.77;5.37;;;;;;;18.81;53.70;101267.50;5031696;27;96895;-50
2023/06/17 00:22:34;;;;;;;5.70;5.30;;;;;;;18.76;53.79;101260.78;5029196;27;97192;-50
2023/06/17 00:24:59;;;;;;;6.30;5.67;;;;;;;18.76;54.00;101262.81;5029380;27;97646;-47
2023/06/17 00:27:25;;;;;;;5.43;5.00;;;;;;;18.77;53.86;101265.03;5035257;27;97765;-49
2023/06/17 00:29:50;;;;;;;7.57;5.73;;;;;;;18.78;53.86;101266.56;5034913;27;97072;-48
2023/06/17 00:32:16;;;;;;;5.80;5.30;;;;;;;18.75;53.75;101262.03;5031239;27;97617;-47
2023/06/17 00:34:41;;;;;;;5.97;5.47;;;;;;;18.68;53.94;101252.28;5028650;27;97289;-51
2023/06/17 00:37:06;;;;;;;6.53;6.03;;;;;;;18.65;54.02;101264.50;5028484;27;105152;-48
2023/06/17 00:39:32;;;;;;;5.97;5.47;;;;;;;18.66;54.23;101245.72;5033629;27;97453;-47
2023/06/17 00:41:57;;;;;;;5.77;5.33;;;;;;;18.66;54.34;101251.31;5032237;27;96676;-49
2023/06/17 00:44:23;;;;;;;7.10;6.40;;;;;;;18.64;54.33;101251.09;5031992;27;97341;-47
2023/06/17 00:46:52;;;;;;;6.40;5.90;;;;;;;18.62;54.28;101259.25;5032071;27;98389;-47
2023/06/17 00:49:18;;;;;;;7.57;6.57;;;;;;;18.59;54.46;101274.22;5029151;27;97130;-49
2023/06/17 00:51:44;;;;;;;6.40;5.90;;;;;;;18.57;54.39;101251.72;5032416;27;98077;-49
2023/06/17 00:54:12;;;;;;;6.70;6.10;;;;;;;18.56;54.46;101261.38;5035260;27;97219;-49
2023/06/17 00:56:38;;;;;;;6.90;6.07;;;;;;;18.54;54.51;101261.16;5037304;27;97234;-49
2023/06/17 00:59:04;;;;;;;7.43;6.70;;;;;;;18.49;54.52;101254.41;5034431;27;97184;-49
2023/06/17 01:01:29;;;;;;;6.23;5.73;;;;;;;18.47;54.45;101256.22;5040223;27;97245;-47
2023/06/17 01:03:59;;;;;;;6.40;5.90;;;;;;;18.44;54.79;101262.81;5035435;27;97476;-48
2023/06/17 01:06:37;;;;;;;6.77;6.17;;;;;;;18.42;55.26;101257.78;5035681;27;97286;-50
2023/06/17 01:09:09;;;;;;;6.30;5.80;;;;;;;18.42;54.82;101251.44;5036589;27;96758;-49
2023/06/17 01:11:37;;;;;;;5.67;5.17;;;;;;;18.43;54.71;101258.53;5033805;27;97251;-49
2023/06/17 01:14:05;;;;;;;6.73;5.70;;;;;;;18.40;54.79;101260.34;5039440;27;96878;-49
2023/06/17 01:16:34;;;;;;;9.53;5.87;;;;;;;18.36;54.78;101245.97;5032887;27;96966;-48
2023/06/17 01:18:59;;;;;;;6.50;5.97;;;;;;;18.34;54.76;101245.75;5035873;27;96756;-47
2023/06/17 01:21:28;;;;;;;5.87;5.37;;;;;;;18.29;54.75;101243.06;5036148;27;96951;-50
2023/06/17 01:23:58;;;;;;;7.67;6.50;;;;;;;18.25;54.95;101248.94;5037610;27;97426;-49
2023/06/17 01:26:24;;;;;;;5.87;5.40;;;;;;;18.22;54.95;101243.66;5035807;27;97241;-49
2023/06/17 01:28:49;;;;;;;6.13;5.63;;;;;;;18.19;54.83;101239.19;5037482;27;97119;-49
2023/06/17 01:31:18;;;;;;;5.50;5.10;;;;;;;18.15;55.24;101233.19;5037083;27;97185;-49
2023/06/17 01:33:46;;;;;;;5.13;4.67;;;;;;;18.12;55.18;101234.97;5031580;27;97404;-48
2023/06/17 01:36:22;;;;;;;6.80;6.10;;;;;;;18.08;55.63;101231.75;5037625;27;97149;-47
2023/06/17 01:38:51;;;;;;;6.17;5.67;;;;;;;18.03;55.21;101229.81;5037652;27;97303;-49
2023/06/17 01:41:19;;;;;;;5.80;5.40;;;;;;;18.00;55.06;101235.69;5034069;27;96947;-48
2023/06/17 01:43:46;;;;;;;6.47;5.83;;;;;;;17.98;55.14;101242.53;5032431;27;98009;-48
2023/06/17 01:46:13;;;;;;;7.90;6.00;;;;;;;17.93;55.21;101235.00;5032997;27;97517;-50
2023/06/17 01:48:39;;;;;;;6.30;5.80;;;;;;;17.90;55.19;101243.69;5034025;27;96845;-49
2023/06/17 01:51:05;;;;;;;6.70;6.10;;;;;;;17.88;55.12;101230.28;5033089;27;98127;-50
2023/06/17 01:53:30;;;;;;;6.70;6.13;;;;;;;17.88;55.19;101238.66;5034042;27;97943;-51
2023/06/17 01:55:56;;;;;;;7.23;6.63;;;;;;;17.86;55.24;101235.66;5033268;27;97203;-47
2023/06/17 01:58:21;;;;;;;6.53;5.80;;;;;;;17.82;55.25;101232.38;5033927;27;97360;-47
2023/06/17 02:00:47;;;;;;;6.50;5.90;;;;;;;17.75;55.46;101233.03;5035205;27;97104;-49
2023/06/17 02:03:12;;;;;;;7.53;6.83;;;;;;;17.77;55.59;101227.69;5033192;27;97677;-49
2023/06/17 02:05:37;;;;;;;7.20;6.60;;;;;;;17.81;55.63;101227.38;5031433;27;100413;-49
2023/06/17 02:08:04;;;;;;;6.90;6.30;;;;;;;17.81;55.85;101216.22;5032691;27;96669;-49
2023/06/17 02:10:30;;;;;;;6.33;5.73;;;;;;;17.83;55.84;101214.41;5032081;27;97271;-48
2023/06/17 02:12:55;;;;;;;7.47;6.13;;;;;;;17.88;55.79;101213.59;5034726;27;97822;-51
2023/06/17 02:15:20;;;;;;;8.27;7.00;;;;;;;17.90;55.90;101210.28;5034150;27;99282;-48
2023/06/17 02:17:46;;;;;;;7.70;7.00;;;;;;;17.93;55.88;101214.78;5036070;27;97182;-48
2023/06/17 02:20:12;;;;;;;7.40;6.70;;;;;;;17.94;55.91;101217.03;5036575;27;97370;-47
2023/06/17 02:22:37;;;;;;;8.40;6.50;;;;;;;17.95;55.87;101212.94;5034334;27;97236;-51
2023/06/17 02:25:05;;;;;;;7.40;6.80;;;;;;;17.95;55.89;101224.09;5034047;27;97287;-47
2023/06/17 02:27:30;;;;;;;8.70;7.90;;;;;;;18.00;55.95;101219.00;5033489;27;97015;-48
2023/06/17 02:29:55;;;;;;;10.53;7.80;;;;;;;18.01;56.12;101217.69;5033160;27;96787;-48
2023/06/17 02:32:21;;;;;;;7.83;7.13;;;;;;;18.02;56.08;101222.72;5032640;27;101577;-48
2023/06/17 02:34:48;;;;;;;6.83;6.23;;;;;;;18.00;56.04;101230.13;5033323;27;104644;-49
2023/06/17 02:37:16;;;;;;;8.03;7.33;;;;;;;18.02;56.05;101230.34;5036838;27;97153;-48
2023/06/17 02:39:41;;;;;;;7.80;7.20;;;;;;;18.01;56.13;101226.03;5034381;27;96866;-47
2023/06/17 02:42:11;;;;;;;9.03;7.10;;;;;;;18.01;56.31;101229.59;5032400;27;97831;-48
2023/06/17 02:44:37;;;;;;;7.40;6.80;;;;;;;18.03;56.09;101227.03;5035090;27;97343;-49
2023/06/17 02:47:02;;;;;;;7.20;6.60;;;;;;;18.02;56.30;101264.50;5033125;27;96931;-52
2023/06/17 02:49:27;;;;;;;7.20;6.50;;;;;;;18.05;56.24;101229.28;5037186;27;96921;-49
2023/06/17 02:51:53;;;;;;;7.90;7.20;;;;;;;18.07;56.31;101227.47;5032664;27;98577;-50
2023/06/17 02:54:19;;;;;;;6.50;6.00;;;;;;;18.04;56.45;101225.00;5033152;27;99969;-47
2023/06/17 02:56:44;;;;;;;7.03;6.43;;;;;;;18.04;56.46;101227.78;5031892;27;96869;-48
2023/06/17 02:59:10;;;;;;;8.30;7.33;;;;;;;18.03;56.60;101229.06;5034146;27;97290;-48
2023/06/17 03:01:40;;;;;;;8.50;7.80;;;;;;;18.04;56.53;101222.97;5033088;27;97751;-48
2023/06/17 03:04:06;;;;;;;7.70;7.00;;;;;;;18.08;56.61;101231.00;5031170;27;96740;-51
2023/06/17 03:06:34;;;;;;;7.67;7.00;;;;;;;18.14;56.69;101220.53;5033214;27;97044;-47
2023/06/17 03:09:00;;;;;;;8.40;7.47;;;;;;;18.17;56.72;101223.00;5038113;27;97093;-46
2023/06/17 03:11:27;;;;;;;8.30;7.60;;;;;;;18.23;56.61;101228.47;5033569;27;97238;-48
2023/06/17 03:13:52;;;;;;;6.83;6.23;;;;;;;18.25;56.66;101228.69;5034398;27;101371;-48
2023/06/17 03:16:18;;;;;;;6.83;6.23;;;;;;;18.27;56.72;101217.78;5036202;27;100918;-49
2023/06/17 03:18:43;;;;;;;8.33;7.50;;;;;;;18.29;56.73;101226.34;5030436;27;97509;-48
2023/06/17 03:21:08;;;;;;;8.60;7.00;;;;;;;18.30;56.63;101227.84;5032930;27;97339;-48
2023/06/17 03:23:33;;;;;;;8.30;7.60;;;;;;;18.32;56.75;101217.69;5038267;27;107762;-48
2023/06/17 03:25:59;;;;;;;8.27;7.57;;;;;;;18.34;56.88;101215.13;5035375;27;97486;-48
2023/06/17 03:28:24;;;;;;;9.23;8.43;;;;;;;18.37;56.92;101219.59;5029782;27;96696;-50
2023/06/17 03:30:52;;;;;;;9.33;8.43;;;;;;;18.37;57.01;101218.88;5031679;27;97620;-48
2023/06/17 03:33:17;;;;;;;10.43;8.23;;;;;;;18.40;57.07;101223.38;5032743;27;97602;-48
2023/06/17 03:35:42;;;;;;;9.37;8.50;;;;;;;18.44;57.10;101216.22;5036904;27;97391;-48
2023/06/17 03:38:09;;;;;;;8.83;8.00;;;;;;;18.49;57.03;101214.63;5033130;27;97171;-47
2023/06/17 03:40:35;;;;;;;9.27;8.23;;;;;;;18.51;56.95;101218.38;5033624;27;97755;-49
2023/06/17 03:43:00;;;;;;;8.50;7.70;;;;;;;18.54;57.15;101213.78;5032873;27;96908;-48
2023/06/17 03:45:27;;;;;;;10.53;8.43;;;;;;;18.56;57.17;101216.78;5034506;27;97289;-47
2023/06/17 03:47:53;;;;;;;9.10;8.30;;;;;;;18.59;57.22;101219.25;5035435;27;96973;-48
2023/06/17 03:50:18;;;;;;;9.43;8.53;;;;;;;18.64;57.17;101220.44;5031864;27;97355;-48
2023/06/17 03:52:43;;;;;;;9.07;8.27;;;;;;;18.68;57.16;101220.84;5034113;27;97014;-51
2023/06/17 03:55:09;;;;;;;9.20;8.30;;;;;;;18.73;56.97;101211.66;5033664;27;96765;-48
2023/06/17 03:57:34;;;;;;;9.23;8.30;;;;;;;18.77;57.15;101230.84;5030579;27;97141;-49
2023/06/17 04:00:00;;;;;;;9.63;8.77;;;;;;;18.80;57.13;101218.63;5034371;27;97368;-48
2023/06/17 04:02:25;;;;;;;11.50;7.90;;;;;;;18.84;57.26;101219.81;5033018;27;97324;-48
2023/06/17 04:04:53;;;;;;;11.30;9.00;;;;;;;18.88;57.35;101225.03;5032963;27;97025;-48
2023/06/17 04:07:20;;;;;;;9.47;8.57;;;;;;;18.89;57.38;101227.31;5033727;27;97115;-48
2023/06/17 04:09:45;;;;;;;9.13;8.23;;;;;;;18.90;57.32;101223.22;5033015;27;97829;-50
2023/06/17 04:12:11;;;;;;;9.90;8.90;;;;;;;18.96;57.40;101217.56;5030985;27;97205;-49
2023/06/17 04:14:37;;;;;;;10.00;9.00;;;;;;;18.97;57.51;101230.19;5032926;27;97030;-49
2023/06/17 04:17:03;;;;;;;11.40;8.90;;;;;;;18.99;57.71;101231.16;5031499;27;97396;-48
2023/06/17 04:19:29;;;;;;;10.57;9.60;;;;;;;19.00;57.76;101227.06;5030210;27;97738;-48
2023/06/17 04:21:54;;;;;;;11.63;9.50;;;;;;;19.01;57.67;101228.59;5029995;27;98174;-48
2023/06/17 04:24:20;;;;;;;9.60;8.60;;;;;;;19.04;57.77;101232.34;5031897;27;96849;-48
2023/06/17 04:26:45;;;;;;;10.00;9.10;;;;;;;19.08;57.70;101243.94;5030233;27;97875;-50
2023/06/17 04:29:11;;;;;;;12.13;9.10;;;;;;;19.10;57.72;101225.38;5035893;27;97332;-48
2023/06/17 04:31:40;;;;;;;11.30;9.80;;;;;;;19.14;57.44;101228.56;5037002;27;97116;-48
2023/06/17 04:34:05;;;;;;;9.57;8.57;;;;;;;19.17;57.53;101230.31;5038680;27;96892;-48
2023/06/17 04:36:30;;;;;;;13.90;10.70;;;;;;;19.18;57.70;101234.56;5039262;27;97821;-47
2023/06/17 04:38:56;;;;;;;11.10;10.00;;;;;;;19.19;57.79;101238.88;5042188;27;108031;-48
2023/06/17 04:41:21;;;;;;;11.13;9.30;;;;;;;19.21;57.77;101233.50;5034009;27;104889;-47
2023/06/17 04:43:48;;;;;;;10.53;9.53;;;;;;;19.25;57.70;101225.56;5035204;27;97567;-48
2023/06/17 04:46:16;;;;;;;10.87;9.80;;;;;;;19.28;57.62;101229.31;5037138;27;96937;-48
2023/06/17 04:48:42;;;;;;;11.87;10.07;;;;;;;19.34;57.49;101232.72;5036880;27;98649;-49
2023/06/17 04:51:07;;;;;;;12.77;10.20;;;;;;;19.35;57.55;101221.06;5034041;27;98109;-49
2023/06/17 04:53:33;;;;;;;12.43;11.13;;;;;;;19.39;57.66;101229.13;5038324;27;96767;-50
2023/06/17 04:55:58;;;;;;;11.10;8.70;;;;;;;19.38;57.65;101219.22;5037900;27;97363;-47
2023/06/17 04:58:23;;;;;;;11.93;9.47;;;;;;;19.39;57.70;101218.72;5034258;27;98463;-47
2023/06/17 05:00:49;;;;;;;10.60;9.53;;;;;;;19.43;57.65;101230.28;5036097;27;97246;-48
2023/06/17 05:03:14;;;;;;;11.57;10.40;;;;;;;19.44;57.69;101222.66;5035212;27;97145;-47
2023/06/17 05:05:39;;;;;;;12.10;10.80;;;;;;;19.42;57.64;101231.56;5038933;27;97266;-48
2023/06/17 05:08:05;;;;;;;13.10;10.07;;;;;;;19.41;57.61;101221.72;5033660;27;102782;-50
2023/06/17 05:10:30;;;;;;;13.10;10.37;;;;;;;19.42;57.64;101228.03;5033709;27;97043;-47
2023/06/17 05:12:56;;;;;;;11.10;10.00;;;;;;;19.41;57.53;101223.75;5036537;27;96784;-48
2023/06/17 05:15:21;;;;;;;11.20;9.63;;;;;;;19.41;57.56;101224.50;5037507;27;97483;-50
2023/06/17 05:17:46;;;;;;;10.23;9.10;;;;;;;19.44;57.70;101226.19;5034674;27;97335;-48
2023/06/17 05:20:12;;;;;;;12.33;10.17;;;;;;;19.43;57.53;101235.88;5035076;27;98010;-49
2023/06/17 05:22:37;;;;;;;10.73;9.77;;;;;;;19.44;57.52;101234.56;5036276;27;97419;-48
2023/06/17 05:25:03;;;;;;;10.50;9.40;;;;;;;19.45;57.41;101235.31;5035941;27;97021;-49
2023/06/17 05:27:28;;;;;;;10.20;9.27;;;;;;;19.44;57.56;101237.34;5036329;27;97351;-47
2023/06/17 05:29:54;;;;;;;13.53;10.33;;;;;;;19.46;57.41;101239.63;5036013;27;97465;-49
2023/06/17 05:32:19;;;;;;;9.00;8.10;;;;;;;19.47;57.43;101240.34;5032603;27;97383;-49
2023/06/17 05:34:45;;;;;;;11.30;9.60;;;;;;;19.47;57.41;101240.34;5036429;27;96838;-48
2023/06/17 05:37:10;;;;;;;12.23;9.33;;;;;;;19.40;57.35;101239.72;5037717;27;100768;-49
2023/06/17 05:39:35;;;;;;;10.07;8.97;;;;;;;19.39;57.66;101243.81;5034080;27;98814;-48
2023/06/17 05:42:01;;;;;;;10.57;9.47;;;;;;;19.40;57.42;101238.97;5035663;27;97171;-50
2023/06/17 05:44:26;;;;;;;8.30;7.50;;;;;;;19.41;57.28;101246.06;5034769;27;96791;-47
2023/06/17 05:46:51;;;;;;;12.03;9.10;;;;;;;19.47;57.45;101241.09;5036752;27;107462;-49
2023/06/17 05:49:17;;;;;;;9.20;8.00;;;;;;;19.54;57.33;101245.28;5035748;27;97286;-48
2023/06/17 05:51:42;;;;;;;9.20;8.20;;;;;;;19.61;57.10;101250.22;5037032;27;97567;-48
2023/06/17 05:54:08;;;;;;;10.70;8.53;;;;;;;19.67;57.03;101242.47;5034339;27;96931;-48
2023/06/17 05:56:33;;;;;;;10.60;8.40;;;;;;;19.70;57.03;101238.59;5034846;27;97363;-48
2023/06/17 05:58:58;;;;;;;9.57;8.67;;;;;;;19.73;56.95;101245.88;5036337;27;97806;-46
2023/06/17 06:01:24;;;;;;;9.87;7.97;;;;;;;19.76;56.84;101239.97;5035696;27;100153;-49
2023/06/17 06:03:49;;;;;;;8.73;7.83;;;;;;;19.82;56.96;101237.03;5037821;27;97218;-48
2023/06/17 06:06:14;;;;;;;11.27;8.50;;;;;;;19.84;56.66;101249.16;5037437;27;97082;-49
2023/06/17 06:08:40;;;;;;;10.20;8.70;;;;;;;19.84;56.49;101251.19;5033650;27;110990;-47
2023/06/17 06:11:05;;;;;;;9.17;7.90;;;;;;;19.80;56.52;101250.78;5032164;27;97243;-47
2023/06/17 06:13:31;;;;;;;9.20;7.70;;;;;;;19.81;56.85;101261.41;5034155;27;96888;-47
2023/06/17 06:15:57;;;;;;;9.30;8.43;;;;;;;19.85;56.76;101252.72;5035093;27;97259;-51
2023/06/17 06:18:22;;;;;;;9.70;8.70;;;;;;;19.86;56.74;101249.38;5035394;27;97760;-51
2023/06/17 06:20:48;;;;;;;9.63;8.17;;;;;;;19.84;56.68;101254.75;5035410;27;97480;-48
2023/06/17 06:23:13;;;;;;;9.20;8.30;;;;;;;19.85;56.74;101261.84;5033777;27;97237;-48
2023/06/17 06:25:39;;;;;;;9.90;8.90;;;;;;;19.84;56.63;101256.78;5043364;27;98317;-51
2023/06/17 06:28:05;;;;;;;9.23;8.33;;;;;;;19.83;56.55;101258.81;5033123;27;97077;-50
2023/06/17 06:30:31;;;;;;;8.87;8.03;;;;;;;19.83;56.84;101258.09;5034748;27;96963;-49
2023/06/17 06:32:56;;;;;;;10.20;8.97;;;;;;;19.84;57.00;101262.38;5034159;27;97175;-46
2023/06/17 06:35:21;;;;;;;9.10;8.17;;;;;;;19.89;56.58;101253.13;5037240;27;99717;-48
2023/06/17 06:37:47;;;;;;;10.27;9.20;;;;;;;19.89;56.41;101253.88;5034693;27;97196;-48
2023/06/17 06:40:13;;;;;;;14.17;8.10;;;;;;;19.92;56.47;101254.84;5034904;27;97362;-47
2023/06/17 06:42:38;;;;;;;9.07;8.20;;;;;;;19.95;56.35;101259.31;5037026;27;97593;-50
2023/06/17 06:45:04;;;;;;;13.40;8.03;;;;;;;19.96;56.31;101267.16;5033795;27;98702;-50
2023/06/17 06:47:29;;;;;;;9.33;8.13;;;;;;;20.00;56.68;101262.00;5034322;27;98400;-47
2023/06/17 06:49:55;;;;;;;9.87;8.87;;;;;;;20.04;56.47;101261.66;5036585;27;96795;-47
2023/06/17 06:52:20;;;;;;;8.43;7.63;;;;;;;20.04;56.25;101270.78;5030748;27;96918;-51
2023/06/17 06:54:46;;;;;;;9.47;8.57;;;;;;;20.07;56.30;101274.53;5032395;27;96821;-49
2023/06/17 06:57:11;;;;;;;9.40;8.50;;;;;;;20.13;56.34;101269.56;5031621;27;97274;-48
2023/06/17 06:59:36;;;;;;;12.60;9.43;;;;;;;20.17;56.53;101279.13;5035158;27;97109;-49
2023/06/17 07:02:02;;;;;;;8.80;8.00;;;;;;;20.18;56.23;101274.28;5034540;27;96926;-49
2023/06/17 07:04:27;;;;;;;10.20;9.23;;;;;;;20.20;56.13;101282.88;5033412;27;97700;-52
2023/06/17 07:06:53;;;;;;;10.00;8.13;;;;;;;20.21;56.28;101284.38;5037277;27;97176;-50
2023/06/17 07:09:18;;;;;;;9.50;8.57;;;;;;;20.27;56.12;101287.78;5036427;27;96879;-54
2023/06/17 07:11:43;;;;;;;10.23;9.20;;;;;;;20.29;56.08;101282.41;5034465;27;97145;-50
2023/06/17 07:14:09;;;;;;;10.23;8.90;;;;;;;20.32;56.00;101284.13;5035448;27;97477;-51
2023/06/17 07:16:34;;;;;;;9.57;8.57;;;;;;;20.35;56.01;101290.66;5033379;27;107100;-48
2023/06/17 07:18:59;;;;;;;10.97;9.70;;;;;;;20.41;56.08;101286.44;5035530;27;97176;-49
2023/06/17 07:21:25;;;;;;;11.13;9.07;;;;;;;20.43;55.88;101283.84;5033945;27;97589;-49
2023/06/17 07:23:51;;;;;;;8.73;7.93;;;;;;;20.43;55.84;101286.63;5033181;27;97111;-52
2023/06/17 07:26:16;;;;;;;11.73;9.60;;;;;;;20.45;55.75;101289.63;5030973;27;97948;-47
2023/06/17 07:28:42;;;;;;;10.70;9.70;;;;;;;20.46;55.87;101287.59;5034141;27;96887;-51
2023/06/17 07:31:08;;;;;;;9.73;8.83;;;;;;;20.47;55.73;101300.25;5032895;27;97364;-47
2023/06/17 07:33:33;;;;;;;13.33;8.97;;;;;;;20.48;55.77;101302.53;5032691;27;97604;-48
2023/06/17 07:35:59;;;;;;;11.37;9.27;;;;;;;20.53;55.78;101292.50;5031389;27;97525;-47
2023/06/17 07:38:25;;;;;;;9.80;8.80;;;;;;;20.60;55.70;101294.59;5034731;27;100999;-49
2023/06/17 07:40:51;;;;;;;9.33;8.53;;;;;;;20.69;55.70;101297.66;5033070;27;96837;-50
2023/06/17 07:43:16;;;;;;;10.17;9.13;;;;;;;20.75;55.74;101295.47;5033314;27;97265;-47
2023/06/17 07:45:41;;;;;;;9.07;8.27;;;;;;;20.80;55.54;101294.59;5035693;27;96934;-47
2023/06/17 07:48:07;;;;;;;11.37;9.60;;;;;;;20.87;55.37;101326.72;5033985;27;97196;-49
2023/06/17 07:50:32;;;;;;;10.00;8.50;;;;;;;20.88;55.35;101292.59;5032952;27;97444;-49
2023/06/17 07:52:57;;;;;;;10.23;9.17;;;;;;;20.86;55.08;101297.22;5031567;27;97912;-48
2023/06/17 07:55:23;;;;;;;13.17;9.60;;;;;;;20.86;55.26;101303.56;5033015;27;102746;-52
2023/06/17 07:57:48;;;;;;;9.80;8.00;;;;;;;20.89;55.10;101299.69;5034879;27;97141;-46
2023/06/17 08:00:14;;;;;;;9.00;7.97;;;;;;;20.96;55.25;101291.88;5033626;27;97408;-51
2023/06/17 08:02:40;;;;;;;10.50;8.90;;;;;;;20.99;55.07;101294.31;5031986;27;97837;-49
2023/06/17 08:05:06;;;;;;;10.60;9.13;;;;;;;21.02;55.11;101293.25;5034338;27;97103;-49
2023/06/17 08:07:32;;;;;;;10.80;9.50;;;;;;;21.07;55.05;101297.97;5035663;27;97039;-47
2023/06/17 08:09:57;;;;;;;10.60;9.10;;;;;;;21.15;55.00;101298.75;5036166;27;97024;-49
2023/06/17 08:12:22;;;;;;;9.70;8.73;;;;;;;21.23;54.90;101315.59;5037634;27;98562;-48
2023/06/17 08:14:47;;;;;;;9.47;8.57;;;;;;;21.24;54.82;101303.09;5039154;27;96752;-48
2023/06/17 08:17:13;;;;;;;10.27;9.07;;;;;;;21.23;54.57;101298.81;5036201;27;97068;-48
2023/06/17 08:19:38;;;;;;;8.63;7.70;;;;;;;21.28;54.66;101295.09;5037346;27;96972;-49
2023/06/17 08:22:04;;;;;;;10.00;8.30;;;;;;;21.34;54.62;101299.22;5027094;27;98414;-52
2023/06/17 08:24:29;;;;;;;8.80;8.00;;;;;;;21.39;54.53;101300.38;5035605;27;97598;-48
2023/06/17 08:26:55;;;;;;;9.13;7.80;;;;;;;21.44;54.51;101305.81;5034046;27;96814;-50
2023/06/17 08:29:20;;;;;;;9.10;8.20;;;;;;;21.52;54.49;101311.44;5033465;27;97312;-52
2023/06/17 08:31:48;;;;;;;9.40;8.50;;;;;;;21.54;54.19;101306.03;5035200;27;97360;-50
2023/06/17 08:34:14;;;;;;;11.60;9.33;;;;;;;21.52;54.19;101311.44;5035905;27;97629;-48
2023/06/17 08:36:46;;;;;;;10.10;8.77;;;;;;;21.49;54.26;101306.97;5035713;27;96693;-47
2023/06/17 08:39:12;;;;;;;10.73;9.20;;;;;;;21.47;54.26;101303.97;5034407;27;97150;-48
2023/06/17 08:41:39;;;;;;;9.93;9.03;;;;;;;21.52;54.38;101305.84;5035147;27;98062;-49
2023/06/17 08:44:06;;;;;;;9.77;8.87;;;;;;;21.59;54.28;101305.91;5034109;27;97141;-49
2023/06/17 08:46:32;;;;;;;9.70;8.80;;;;;;;21.65;54.17;101303.66;5032598;27;97147;-49
2023/06/17 08:48:58;;;;;;;10.10;9.10;;;;;;;21.69;54.33;101314.50;5036598;27;97402;-48
2023/06/17 08:51:26;;;;;;;11.70;9.47;;;;;;;21.71;54.18;101311.91;5031648;27;97812;-51
2023/06/17 08:53:52;;;;;;;11.40;10.20;;;;;;;21.71;53.92;101311.16;5034922;27;97352;-49
2023/06/17 08:56:18;;;;;;;11.93;10.33;;;;;;;21.70;53.87;101306.84;5032516;27;97086;-51
2023/06/17 08:58:44;;;;;;;10.00;8.97;;;;;;;21.72;54.04;101307.81;5033565;27;97481;-48
2023/06/17 09:01:12;;;;;;;9.53;8.60;;;;;;;21.79;53.93;101311.94;5033779;27;98609;-49
2023/06/17 09:03:39;;;;;;;10.00;9.00;;;;;;;21.82;53.97;101305.97;5035491;27;97326;-46
2023/06/17 09:06:28;;;;;;;10.00;9.00;;;;;;;21.86;53.88;101314.06;5034692;27;96984;-52
2023/06/17 09:08:55;;;;;;;10.37;9.07;;;;;;;21.93;53.69;101316.88;5036197;27;97250;-50
2023/06/17 09:11:25;;;;;;;11.17;9.97;;;;;;;22.00;53.65;101309.78;5033428;27;96674;-49
2023/06/17 09:13:52;;;;;;;11.93;10.13;;;;;;;22.03;53.66;101312.22;5036723;27;97373;-51
2023/06/17 09:16:28;;;;;;;11.17;9.60;;;;;;;22.06;53.64;101313.19;5034783;27;97425;-48
2023/06/17 09:18:57;;;;;;;11.10;9.63;;;;;;;22.03;53.50;101308.69;5033172;27;96788;-48
2023/06/17 09:21:25;;;;;;;10.20;9.20;;;;;;;22.06;53.61;101313.91;5035459;27;98594;-49
2023/06/17 09:24:02;;;;;;;9.60;8.73;;;;;;;22.10;53.31;101317.13;5033116;27;97276;-48
2023/06/17 09:26:31;;;;;;;11.83;9.73;;;;;;;22.15;53.35;101315.41;5032799;27;97150;-53
2023/06/17 09:29:03;;;;;;;10.57;9.43;;;;;;;22.17;53.48;101307.94;5035144;27;96890;-49
2023/06/17 09:31:30;;;;;;;19.63;9.47;;;;;;;22.26;53.46;101309.47;5032010;27;97937;-50
2023/06/17 09:33:56;;;;;;;9.67;8.77;;;;;;;22.35;53.54;101315.28;5032449;27;97755;-49
2023/06/17 09:36:23;;;;;;;10.80;9.60;;;;;;;22.42;53.14;101315.84;5031998;27;97076;-50
2023/06/17 09:38:50;;;;;;;10.83;9.60;;;;;;;22.42;53.03;101310.22;5030784;27;97705;-49
2023/06/17 09:41:18;;;;;;;9.03;8.27;;;;;;;22.43;53.27;101315.31;5031766;27;98500;-49
2023/06/17 09:43:49;;;;;;;11.13;9.93;;;;;;;22.46;53.17;101316.22;5038418;27;97248;-49
2023/06/17 09:46:24;;;;;;;11.53;9.63;;;;;;;22.49;53.07;101310.25;5034347;27;97554;-52
2023/06/17 09:48:51;;;;;;;10.43;9.30;;;;;;;22.51;53.08;101318.09;5034248;27;97219;-53
2023/06/17 09:51:20;;;;;;;13.20;9.67;;;;;;;22.54;53.07;101319.78;5033493;27;97207;-48
2023/06/17 09:53:47;;;;;;;11.07;9.97;;;;;;;22.55;52.81;101313.59;5033010;27;97330;-50
2023/06/17 09:56:14;;;;;;;10.60;9.67;;;;;;;22.55;52.91;101310.81;5034767;27;97135;-52
2023/06/17 09:58:41;;;;;;;10.37;8.60;;;;;;;22.59;52.78;101316.03;5033595;27;97279;-47
2023/06/17 10:01:08;;;;;;;9.77;8.60;;;;;;;22.62;52.74;101312.91;5029932;27;97566;-52
2023/06/17 10:03:33;;;;;;;10.23;9.23;;;;;;;22.67;52.87;101303.53;5034200;27;97461;-49
2023/06/17 10:06:05;;;;;;;12.30;9.50;;;;;;;22.72;52.87;101310.25;5032814;27;96763;-51
2023/06/17 10:08:31;;;;;;;10.47;8.97;;;;;;;22.79;52.85;101304.66;5034386;27;96790;-50
2023/06/17 10:11:00;;;;;;;12.10;10.10;;;;;;;22.86;52.61;101309.53;5031197;27;97075;-50
2023/06/17 10:13:27;;;;;;;13.00;9.40;;;;;;;22.88;52.54;101311.75;5033351;27;110720;-48
2023/06/17 10:15:56;;;;;;;11.07;9.97;;;;;;;22.88;52.48;101308.94;5032638;27;96944;-50
2023/06/17 10:18:23;;;;;;;12.10;9.83;;;;;;;22.89;52.25;101307.66;5030069;27;97054;-49
2023/06/17 10:20:50;;;;;;;11.30;10.10;;;;;;;22.88;52.11;101301.28;5028212;27;97726;-50
2023/06/17 10:23:18;;;;;;;10.70;9.70;;;;;;;22.97;51.98;101297.91;5031855;27;97681;-50
2023/06/17 10:25:45;;;;;;;10.43;9.23;;;;;;;23.00;51.96;101305.19;5031305;27;97035;-51
2023/06/17 10:28:10;;;;;;;9.83;8.83;;;;;;;23.13;51.79;101302.16;5030731;27;96791;-51
2023/06/17 10:30:37;;;;;;;9.90;9.00;;;;;;;23.24;51.68;101297.47;5033692;27;97770;-48
2023/06/17 10:33:03;;;;;;;10.70;9.60;;;;;;;23.38;51.51;101295.94;5034632;27;98091;-51
2023/06/17 10:35:44;;;;;;;10.27;9.27;;;;;;;23.48;51.38;101294.78;5031579;27;97162;-51
2023/06/17 10:38:27;;;;;;;10.20;9.20;;;;;;;23.48;51.04;101297.59;5030746;27;97241;-50
2023/06/17 10:40:52;;;;;;;9.50;8.60;;;;;;;23.57;51.18;101299.81;5028133;27;97040;-50
2023/06/17 10:43:19;;;;;;;9.23;8.30;;;;;;;23.69;51.05;101303.72;5034411;27;106792;-48
2023/06/17 10:45:51;;;;;;;9.63;8.67;;;;;;;23.82;51.01;101297.06;5033464;22;97223;-83
2023/06/17 10:48:21;;;;;;;10.70;9.67;;;;;;;23.84;50.76;101297.25;4984360;28;97695;-80
2023/06/17 10:51:11;;;;;;;10.13;8.80;;;;;;;23.92;50.70;101291.59;4966533;28;100441;-81
2023/06/17 10:53:37;;;;;;;9.87;8.60;;;;;;;24.02;50.81;101293.22;4984983;28;97277;-81
2023/06/17 10:56:04;;;;;;;9.77;8.70;;;;;;;24.18;50.57;101291.81;4990069;28;96852;-79
2023/06/17 10:58:35;;;;;;;9.93;9.10;;;;;;;24.31;50.24;101288.00;4967996;28;97436;-82
2023/06/17 11:01:02;;;;;;;10.87;9.60;;;;;;;24.23;50.14;101287.28;4986086;28;97537;-82
2023/06/17 11:03:28;;;;;;;10.90;9.40;;;;;;;24.16;50.09;101285.28;4986369;28;97893;-83
2023/06/17 11:06:00;;;;;;;10.20;9.20;;;;;;;24.20;50.22;101286.38;4985660;28;97263;-77
2023/06/17 11:08:27;;;;;;;10.03;9.00;;;;;;;24.05;50.02;101280.84;4983452;28;97384;-80
2023/06/17 11:10:52;;;;;;;10.77;9.73;;;;;;;23.99;50.38;101285.91;4985332;28;97339;-81
2023/06/17 11:13:21;;;;;;;10.13;9.20;;;;;;;24.08;50.02;101284.59;4985050;28;98241;-80
2023/06/17 11:15:48;;;;;;;9.60;8.70;;;;;;;24.22;50.11;101285.81;4964671;28;97526;-78
2023/06/17 11:18:13;;;;;;;9.97;9.00;;;;;;;24.29;50.18;101285.00;4983154;28;97301;-82